Arroyo Seco, New Mexico
Current Conditions -  °F | °C
As of 9:55 PM on Wednesday 22 Oct 2014 (Local Time) from KSKX Reporting Station
Broken Clouds Broken Clouds  
Wind Chill:   Ceiling: 10000
Heat Index:   Visibility: 10mi
Dew Point: -1°   Wind: 8mph
Humidity: 57%   Direction: 110°ESE
Pressure: 30.28"   Gusts: NA
Location:  36.52°N, 105.57°W
Report Text: KSKX 230355Z AUTO 11007KT 10SM BKN100 07/M01 A3028 RMK AO1
Loading
Personal Weather Stations






























Interactive Weather Map
Tropical Storm Tracking
New forecast layout! Learn more

10-Day Weather Forecast

Advertisements
Track Severe Weather on mobile